KBOS/BOS METAR and TAF weather

Enter ICAO airport designator
Station Type Date Time Source
KBOS METAR 2019/06/24 23:54 UTC NOAA

KBOS 242354Z 08008KT 10SM FEW045 BKN160 OVC250 19/14 A2984 RMK AO2 SLP105 T01890139 10244 20189 53006


Station Type Date Time Source
KBOS Decoded METAR 2019/06/24 23:54 UTC NOAA

BOSTON LOGAN INTERNATIONAL, MA, United States (KBOS) 42-22N 071-01W 54M
Jun 24, 2019 - 07:54 PM EDT / 2019.06.24 2354 UTC
Wind: from the E (080 degrees) at 9 MPH (8 KT):0
Visibility: 10 mile(s):0
Sky conditions: overcast
Temperature: 66.0 F (18.9 C)
Dew Point: 57.0 F (13.9 C)
Relative Humidity: 72%
Pressure (altimeter): 29.84 in. Hg (1010 hPa)
Pressure tendency: 0.02 inches (0.6 hPa) higher than three hours ago
ob: KBOS 242354Z 08008KT 10SM FEW045 BKN160 OVC250 19/14 A2984 RMK AO2 SLP105 T01890139 10244 20189 53006
cycle: 0

Station Type Date Time Source
KBOS TAF 2019/06/24 21:14 UTC NOAA

TAF
AMD KBOS 242106Z 2421/2524 11012KT P6SM FEW045
FM250300 13006KT P6SM FEW070
FM251500 13008KT P6SM VCSH OVC080
FM251900 14008KT 3SM -SHRA BR OVC010
FM252200 12010G18KT 3SM SHRA BR OVC010

Example: see airport list